createdAt,value
2023-01-05T00:00:42.033Z,11.24
2023-01-05T00:03:44.946Z,11.18
2023-01-05T00:06:51.809Z,11.20
2023-01-05T00:09:54.787Z,11.09
2023-01-05T00:13:14.995Z,11.14
2023-01-05T00:16:35.559Z,11.15
2023-01-05T00:19:55.810Z,11.27
2023-01-05T00:23:00.243Z,11.19
2023-01-05T00:26:03.005Z,11.23
2023-01-05T00:29:05.898Z,11.27
2023-01-05T00:32:08.704Z,11.32
2023-01-05T00:35:13.601Z,11.35
2023-01-05T00:38:17.853Z,11.38
2023-01-05T00:41:20.702Z,11.32
2023-01-05T00:44:23.723Z,11.32
2023-01-05T00:47:26.532Z,11.31
2023-01-05T00:50:29.392Z,11.29
2023-01-05T00:53:33.964Z,11.32
2023-01-05T00:56:37.210Z,11.32
2023-01-05T00:59:40.727Z,11.30
2023-01-05T01:02:44.145Z,11.35
2023-01-05T01:05:47.020Z,11.39
2023-01-05T01:08:51.310Z,11.39
2023-01-05T01:11:54.670Z,11.35
2023-01-05T01:14:57.476Z,11.34
2023-01-05T01:18:00.200Z,11.36
2023-01-05T01:21:03.589Z,11.31
2023-01-05T01:24:08.585Z,11.41
2023-01-05T01:27:11.328Z,11.36
2023-01-05T01:30:14.486Z,11.41
2023-01-05T01:33:17.460Z,11.35
2023-01-05T01:36:20.525Z,11.34
2023-01-05T01:39:25.034Z,11.36
2023-01-05T01:42:27.912Z,11.33
2023-01-05T01:45:30.832Z,11.29
2023-01-05T01:48:37.800Z,11.36
2023-01-05T01:51:46.156Z,11.37
2023-01-05T01:54:52.681Z,11.31
2023-01-05T01:57:56.171Z,11.26
2023-01-05T02:01:01.118Z,11.26
2023-01-05T02:04:06.187Z,11.24
2023-01-05T02:07:10.743Z,11.23
2023-01-05T02:10:18.401Z,11.26
2023-01-05T02:13:34.416Z,11.29
2023-01-05T02:16:47.812Z,11.27
2023-01-05T02:20:37.741Z,11.24
2023-01-05T02:24:09.469Z,11.29
2023-01-05T02:27:39.045Z,11.25
2023-01-05T02:31:05.665Z,11.33
2023-01-05T02:34:19.609Z,11.31
2023-01-05T02:37:29.291Z,11.28
2023-01-05T02:40:37.777Z,11.29
2023-01-05T02:43:40.939Z,11.29
2023-01-05T02:46:45.353Z,11.26
2023-01-05T02:49:48.138Z,11.27
2023-01-05T02:52:57.694Z,11.26
2023-01-05T02:56:05.793Z,11.34
2023-01-05T02:59:13.871Z,11.34
2023-01-05T03:02:22.833Z,11.31
2023-01-05T03:05:29.760Z,11.31
2023-01-05T03:08:34.731Z,11.33
2023-01-05T03:12:14.106Z,11.36
2023-01-05T03:15:21.968Z,11.39
2023-01-05T03:18:27.997Z,11.32
2023-01-05T03:21:45.511Z,11.34
2023-01-05T03:25:06.957Z,11.35
2023-01-05T03:28:32.167Z,11.40
2023-01-05T03:31:58.101Z,11.47
2023-01-05T03:35:23.643Z,11.42
2023-01-05T03:38:32.988Z,11.37
2023-01-05T03:41:37.242Z,11.38
2023-01-05T03:44:41.332Z,11.37
2023-01-05T03:47:44.143Z,11.38
2023-01-05T03:50:49.010Z,11.42
2023-01-05T03:53:52.106Z,11.36
2023-01-05T03:56:55.137Z,11.39
2023-01-05T03:59:57.998Z,11.39
2023-01-05T04:03:01.014Z,11.42
2023-01-05T04:06:05.653Z,11.40
2023-01-05T04:09:08.496Z,11.35
2023-01-05T04:12:11.518Z,11.33
2023-01-05T04:15:14.384Z,11.34
2023-01-05T04:18:17.352Z,11.36
2023-01-05T04:21:21.830Z,11.36
2023-01-05T04:24:24.635Z,11.36
2023-01-05T04:27:27.909Z,11.34
2023-01-05T04:30:30.799Z,11.31
2023-01-05T04:33:33.633Z,11.30
2023-01-05T04:36:37.809Z,11.36
2023-01-05T04:39:40.813Z,11.32
2023-01-05T04:42:44.023Z,11.35
2023-01-05T04:45:47.980Z,11.36
2023-01-05T04:48:50.853Z,11.35
2023-01-05T04:51:55.204Z,11.35
2023-01-05T04:54:58.046Z,11.35
2023-01-05T04:58:01.471Z,11.34
2023-01-05T05:01:05.824Z,11.35
2023-01-05T05:04:08.690Z,11.51
2023-01-05T05:07:13.218Z,11.52
2023-01-05T05:10:18.306Z,11.75
2023-01-05T05:13:21.482Z,11.89
2023-01-05T05:16:24.583Z,11.93
2023-01-05T05:19:27.739Z,11.90
2023-01-05T05:22:32.185Z,11.89
2023-01-05T05:25:35.363Z,11.89
2023-01-05T05:28:38.600Z,11.87
2023-01-05T05:31:41.784Z,11.92
2023-01-05T05:34:44.848Z,11.85
2023-01-05T05:37:54.524Z,11.69
2023-01-05T05:40:59.362Z,11.65
2023-01-05T05:44:02.711Z,11.64
2023-01-05T05:47:06.280Z,11.66
2023-01-05T05:50:10.376Z,11.70
2023-01-05T05:53:14.572Z,11.70
2023-01-05T05:56:17.738Z,11.66
2023-01-05T05:59:20.824Z,11.72
2023-01-05T06:02:23.648Z,11.64
2023-01-05T06:05:26.593Z,11.58
2023-01-05T06:08:30.929Z,11.55
2023-01-05T06:11:33.675Z,11.52
2023-01-05T06:14:36.731Z,11.49
2023-01-05T06:17:39.821Z,11.51
2023-01-05T06:20:43.247Z,11.52
2023-01-05T06:23:47.380Z,11.47
2023-01-05T06:26:50.351Z,11.36
2023-01-05T06:29:53.329Z,11.30
2023-01-05T06:32:56.624Z,11.30
2023-01-05T06:35:59.549Z,11.22
2023-01-05T06:39:03.737Z,11.11
2023-01-05T06:42:06.579Z,11.04
2023-01-05T06:45:13.252Z,11.00
2023-01-05T06:48:16.224Z,11.00
2023-01-05T06:51:19.051Z,11.02
2023-01-05T06:54:23.200Z,11.01
2023-01-05T06:57:25.974Z,10.99
2023-01-05T07:00:29.585Z,10.94
2023-01-05T07:03:32.424Z,10.94
2023-01-05T07:06:36.106Z,10.97
2023-01-05T07:09:40.826Z,11.01
2023-01-05T07:12:43.686Z,10.99
2023-01-05T07:15:46.624Z,11.03
2023-01-05T07:18:49.334Z,11.04
2023-01-05T07:21:56.797Z,11.10
2023-01-05T07:25:02.710Z,11.07
2023-01-05T07:28:05.861Z,11.03
2023-01-05T07:31:08.878Z,10.99
2023-01-05T07:34:13.793Z,11.03
2023-01-05T07:37:17.116Z,11.14
2023-01-05T07:40:21.599Z,11.16
2023-01-05T07:43:24.392Z,11.16
2023-01-05T07:46:27.201Z,11.09
2023-01-05T07:49:30.516Z,11.13
2023-01-05T07:52:33.267Z,11.15
2023-01-05T07:55:37.902Z,11.16
2023-01-05T07:58:41.050Z,11.20
2023-01-05T08:01:43.917Z,11.29
2023-01-05T08:04:47.692Z,11.33
2023-01-05T08:07:50.676Z,11.34
2023-01-05T08:10:55.114Z,11.36
2023-01-05T08:14:00.654Z,11.38
2023-01-05T08:17:03.728Z,11.34
2023-01-05T08:20:07.799Z,11.34
2023-01-05T08:23:10.901Z,11.31
2023-01-05T08:26:16.715Z,11.32
2023-01-05T08:29:19.704Z,11.39
2023-01-05T08:32:22.578Z,11.32
2023-01-05T08:35:25.487Z,11.34
2023-01-05T08:38:28.672Z,11.34
2023-01-05T08:41:36.724Z,11.42
2023-01-05T08:44:39.589Z,11.37
2023-01-05T08:47:42.591Z,11.35
2023-01-05T08:50:45.624Z,11.29
2023-01-05T08:53:48.878Z,11.38
2023-01-05T08:56:53.134Z,11.35
2023-01-05T08:59:56.464Z,11.34
2023-01-05T09:02:59.882Z,11.42
2023-01-05T09:06:03.490Z,11.41
2023-01-05T09:09:06.565Z,11.43
2023-01-05T09:12:10.987Z,11.50
2023-01-05T09:15:14.128Z,11.53
2023-01-05T09:18:16.940Z,11.42
2023-01-05T09:21:20.169Z,11.50
2023-01-05T09:24:23.205Z,11.53
2023-01-05T09:27:27.470Z,11.54
2023-01-05T09:30:36.327Z,11.58
2023-01-05T09:33:45.068Z,11.61
2023-01-05T09:36:48.109Z,11.61
2023-01-05T09:39:51.209Z,11.64
2023-01-05T09:42:55.994Z,11.67
2023-01-05T09:46:00.140Z,11.61
2023-01-05T09:49:07.614Z,11.63
2023-01-05T09:52:12.717Z,11.67
2023-01-05T09:55:18.382Z,11.65
2023-01-05T09:58:29.988Z,11.61
2023-01-05T10:01:35.150Z,11.59
2023-01-05T10:04:38.669Z,11.58
2023-01-05T10:07:45.098Z,11.63
2023-01-05T10:11:10.834Z,11.71
2023-01-05T10:14:19.447Z,11.72
2023-01-05T10:17:41.002Z,11.72
2023-01-05T10:20:52.244Z,11.77
2023-01-05T10:24:08.825Z,11.81
2023-01-05T10:27:26.888Z,11.86
2023-01-05T10:30:43.681Z,11.92
2023-01-05T10:33:53.913Z,11.91
2023-01-05T10:37:12.171Z,11.94
2023-01-05T10:40:28.351Z,12.03
2023-01-05T10:43:46.771Z,12.04
2023-01-05T10:46:52.879Z,12.04
2023-01-05T10:49:56.037Z,11.97
2023-01-05T10:52:59.727Z,12.01
2023-01-05T10:56:05.073Z,12.00
2023-01-05T10:59:10.038Z,12.01
2023-01-05T11:02:15.093Z,12.01
2023-01-05T11:05:26.507Z,12.04
2023-01-05T11:08:32.220Z,12.03
2023-01-05T11:11:36.378Z,12.02
2023-01-05T11:14:44.975Z,11.99
2023-01-05T11:17:49.382Z,12.09
2023-01-05T11:21:13.377Z,12.08
2023-01-05T11:24:31.889Z,12.05
2023-01-05T11:27:34.821Z,12.01
2023-01-05T11:30:39.593Z,12.08
2023-01-05T11:33:46.101Z,12.04
2023-01-05T11:36:54.025Z,12.11
2023-01-05T11:39:59.115Z,12.09
2023-01-05T11:43:03.034Z,12.02
2023-01-05T11:46:06.705Z,12.01
2023-01-05T11:49:11.476Z,12.00
2023-01-05T11:52:29.153Z,12.09
2023-01-05T11:55:35.032Z,12.20
2023-01-05T11:58:44.248Z,12.11
2023-01-05T12:02:03.104Z,12.16
2023-01-05T12:05:24.000Z,12.10
2023-01-05T12:08:32.414Z,12.17
2023-01-05T12:11:45.440Z,12.20
2023-01-05T12:15:18.332Z,12.16
2023-01-05T12:19:00.397Z,12.10
2023-01-05T12:22:26.651Z,12.00
2023-01-05T12:25:44.126Z,12.01
2023-01-05T12:34:01.460Z,11.99
2023-01-05T12:36:40.714Z,11.94
2023-01-05T12:40:04.775Z,11.95
2023-01-05T12:43:11.137Z,12.00
2023-01-05T12:46:32.194Z,12.08
2023-01-05T12:49:41.759Z,12.08
2023-01-05T12:52:49.343Z,12.09
2023-01-05T12:55:58.086Z,12.13
2023-01-05T12:59:13.713Z,12.07
2023-01-05T13:02:27.793Z,12.03
2023-01-05T13:05:41.708Z,12.09
2023-01-05T13:08:53.889Z,12.02
2023-01-05T13:12:05.055Z,12.01
2023-01-05T13:15:17.985Z,11.98
2023-01-05T13:18:25.388Z,12.03
2023-01-05T13:21:30.110Z,12.01
2023-01-05T13:24:38.363Z,12.01
2023-01-05T13:27:43.248Z,11.99
2023-01-05T13:31:04.884Z,11.91
2023-01-05T13:34:25.811Z,11.98
2023-01-05T13:37:50.971Z,12.01
2023-01-05T13:41:14.450Z,12.02
2023-01-05T13:44:42.358Z,12.02
2023-01-05T13:48:12.579Z,12.00
2023-01-05T13:51:46.587Z,12.01
2023-01-05T13:55:01.355Z,12.02
2023-01-05T13:58:06.038Z,12.01
2023-01-05T14:01:14.437Z,12.03
2023-01-05T14:04:20.984Z,12.07
2023-01-05T14:07:24.476Z,12.05
2023-01-05T14:10:31.040Z,11.98
2023-01-05T14:13:46.797Z,11.97
2023-01-05T14:16:55.824Z,12.00
2023-01-05T14:19:59.068Z,11.90
2023-01-05T14:23:03.684Z,11.89
2023-01-05T14:26:07.993Z,11.88
2023-01-05T14:29:10.825Z,11.91
2023-01-05T14:32:20.272Z,11.88
2023-01-05T14:35:37.278Z,11.78
2023-01-05T14:38:49.357Z,11.81
2023-01-05T14:42:01.277Z,11.78
2023-01-05T14:45:07.842Z,11.71
2023-01-05T14:48:29.437Z,11.62
2023-01-05T14:51:33.898Z,11.66
2023-01-05T14:55:05.947Z,11.76
2023-01-05T14:58:36.776Z,11.76
2023-01-05T15:01:48.054Z,11.74
2023-01-05T15:08:18.002Z,11.61
2023-01-05T15:11:47.779Z,11.58
2023-01-05T15:15:17.554Z,11.65
2023-01-05T15:18:56.007Z,11.61
2023-01-05T15:22:13.286Z,11.66
2023-01-05T15:26:03.146Z,11.68
2023-01-05T15:29:27.235Z,11.69
2023-01-05T15:32:35.304Z,11.65
2023-01-05T15:35:44.473Z,11.62
2023-01-05T15:38:49.016Z,11.61
2023-01-05T15:41:52.498Z,11.57
2023-01-05T15:44:57.446Z,11.63
2023-01-05T15:48:08.465Z,11.60
2023-01-05T15:51:22.312Z,11.55
2023-01-05T15:54:28.110Z,11.51
2023-01-05T15:57:31.257Z,11.52
2023-01-05T16:00:36.077Z,11.53
2023-01-05T16:03:40.665Z,11.52
2023-01-05T16:06:45.771Z,11.60
2023-01-05T16:09:50.001Z,11.56
2023-01-05T16:12:58.026Z,11.53
2023-01-05T16:16:05.576Z,11.48
2023-01-05T16:19:16.983Z,11.45
2023-01-05T16:22:35.011Z,11.45
2023-01-05T16:25:43.659Z,11.45
2023-01-05T16:28:46.708Z,11.54
2023-01-05T16:31:57.296Z,11.47
2023-01-05T16:35:30.749Z,11.43
2023-01-05T16:38:33.723Z,11.44
2023-01-05T16:41:57.763Z,11.39
2023-01-05T16:45:00.903Z,11.37
2023-01-05T16:48:03.540Z,11.35
2023-01-05T16:51:09.139Z,11.32
2023-01-05T16:54:20.766Z,11.31
2023-01-05T16:57:42.081Z,11.28
2023-01-05T17:00:44.817Z,11.21
2023-01-05T17:03:47.911Z,11.17
2023-01-05T17:06:52.568Z,11.13
2023-01-05T17:09:55.652Z,11.09
2023-01-05T17:13:02.655Z,11.02
2023-01-05T17:16:05.984Z,10.96
2023-01-05T17:19:13.326Z,10.92
2023-01-05T17:22:16.035Z,10.91
2023-01-05T17:25:18.759Z,10.88
2023-01-05T17:28:24.712Z,10.83
2023-01-05T17:31:27.676Z,10.79
2023-01-05T17:34:30.344Z,10.69
2023-01-05T17:37:33.002Z,10.66
2023-01-05T17:40:35.721Z,10.65
2023-01-05T17:46:49.246Z,10.53
2023-01-05T17:49:52.778Z,10.50
2023-01-05T17:52:56.132Z,10.46
2023-01-05T17:55:58.819Z,10.43
2023-01-05T17:59:03.418Z,10.42
2023-01-05T18:02:06.137Z,10.42
2023-01-05T18:05:10.802Z,10.43
2023-01-05T18:08:13.572Z,10.42
2023-01-05T18:11:17.708Z,10.43
2023-01-05T18:14:22.129Z,10.41
2023-01-05T18:17:24.819Z,10.43
2023-01-05T18:20:30.728Z,10.39
2023-01-05T18:23:33.797Z,10.35
2023-01-05T18:26:36.491Z,10.35
2023-01-05T18:29:41.729Z,10.32
2023-01-05T18:32:44.939Z,10.38
2023-01-05T18:35:50.432Z,10.37
2023-01-05T18:38:53.347Z,10.41
2023-01-05T18:41:56.860Z,10.45
2023-01-05T18:45:09.014Z,10.51
2023-01-05T18:48:22.284Z,10.55
2023-01-05T18:51:25.105Z,10.62
2023-01-05T18:54:27.739Z,10.66
2023-01-05T18:57:30.543Z,10.80
2023-01-05T19:00:34.605Z,10.83
2023-01-05T19:03:37.326Z,10.82
2023-01-05T19:06:40.460Z,10.87
2023-01-05T19:09:43.107Z,10.85
2023-01-05T19:12:46.123Z,10.85
2023-01-05T19:15:50.188Z,10.84
2023-01-05T19:18:55.547Z,10.83
2023-01-05T19:21:58.242Z,10.86
2023-01-05T19:25:00.931Z,10.84
2023-01-05T19:28:03.723Z,10.74
2023-01-05T19:31:09.686Z,10.70
2023-01-05T19:34:14.772Z,10.60
2023-01-05T19:37:17.440Z,10.51
2023-01-05T19:40:20.136Z,10.49
2023-01-05T19:43:22.775Z,10.44
2023-01-05T19:46:28.271Z,10.44
2023-01-05T19:49:30.984Z,10.46
2023-01-05T19:52:33.682Z,10.45
2023-01-05T19:55:39.567Z,10.47
2023-01-05T19:58:43.633Z,10.45
2023-01-05T20:01:47.939Z,10.55
2023-01-05T20:04:50.771Z,10.53
2023-01-05T20:07:53.764Z,10.57
2023-01-05T20:11:09.470Z,10.62
2023-01-05T20:14:20.760Z,10.71
2023-01-05T20:17:29.366Z,10.81
2023-01-05T20:20:31.992Z,10.87
2023-01-05T20:23:37.562Z,10.84
2023-01-05T20:42:59.345Z,11.01
2023-01-05T20:46:59.427Z,10.98
2023-01-05T20:54:22.328Z,10.90
2023-01-05T20:57:38.844Z,10.90
2023-01-05T21:01:09.467Z,10.74
2023-01-05T21:04:33.453Z,10.67
2023-01-05T21:08:11.497Z,10.61
2023-01-05T21:11:41.083Z,10.59
2023-01-05T21:14:58.359Z,10.49
2023-01-05T21:18:22.048Z,10.51
2023-01-05T21:26:46.459Z,10.43
2023-01-05T21:30:08.964Z,10.42
2023-01-05T21:34:18.173Z,10.35
2023-01-05T21:37:36.374Z,10.30
2023-01-05T21:40:44.009Z,10.30
2023-01-05T21:43:54.104Z,10.29
2023-01-05T21:47:01.860Z,10.29
2023-01-05T21:50:09.188Z,10.24
2023-01-05T21:53:34.605Z,10.19
2023-01-05T21:56:46.725Z,10.15
2023-01-05T21:59:55.967Z,10.10
2023-01-05T22:03:02.979Z,10.04
2023-01-05T22:06:09.497Z,10.01
2023-01-05T22:09:16.387Z,10.00
2023-01-05T22:12:23.033Z,10.05
2023-01-05T22:15:31.494Z,10.06
2023-01-05T22:18:38.279Z,10.18
2023-01-05T22:21:44.948Z,10.21
2023-01-05T22:24:52.074Z,10.29
2023-01-05T22:28:00.260Z,10.32
2023-01-05T22:31:10.095Z,10.39
2023-01-05T22:34:17.488Z,10.45
2023-01-05T22:37:26.393Z,10.54
2023-01-05T22:40:33.164Z,10.61
2023-01-05T22:43:41.523Z,10.60
2023-01-05T22:46:50.427Z,10.55
2023-01-05T22:49:57.117Z,10.60
2023-01-05T22:53:03.857Z,10.61
2023-01-05T22:56:12.510Z,10.60
2023-01-05T22:59:19.224Z,10.69
2023-01-05T23:02:27.475Z,10.71
2023-01-05T23:05:33.994Z,10.62
2023-01-05T23:08:41.796Z,10.56
2023-01-05T23:11:49.550Z,10.53
2023-01-05T23:14:55.944Z,10.53
2023-01-05T23:18:03.623Z,10.48
2023-01-05T23:21:12.776Z,10.51
2023-01-05T23:24:20.272Z,10.48
2023-01-05T23:27:28.285Z,10.52
2023-01-05T23:30:37.197Z,10.50
2023-01-05T23:33:47.783Z,10.49
2023-01-05T23:36:54.720Z,10.43
2023-01-05T23:40:01.280Z,10.44
2023-01-05T23:43:11.045Z,10.46
2023-01-05T23:46:21.027Z,10.56
2023-01-05T23:49:32.241Z,10.57
2023-01-05T23:52:41.489Z,10.63
2023-01-05T23:55:48.341Z,10.62
2023-01-05T23:58:59.835Z,10.67
